This is the latest recevied weather packets stored in our database for station/object EB2GLU-13. If no packets are shown the sender has not sent any weather packets the latest 10 day(s).
| Time | Temp. | Humidity | Pressure | Rain* | Wind** | Luminosity | Snow |
|---|---|---|---|---|---|---|---|
| 1787520438 | 20° C | 98% | 1006.3 hPa | 0 mm | - | - | - |
| 1787519688 | 20° C | 98% | 1006.5 hPa | 0 mm | - | - | - |
| 1787518938 | 20° C | 97% | 1006.5 hPa | 0 mm | - | - | - |
| 1787518188 | 20° C | 97% | 1007.2 hPa | 0 mm | - | - | - |
| 1787517438 | 20° C | 97% | 1007.4 hPa | 0 mm | - | - | - |
| 1787516688 | 20° C | 97% | 1007.1 hPa | 0 mm | - | - | - |
| 1787515938 | 20° C | 97% | 1006.4 hPa | 0 mm | - | - | - |
| 1787515188 | 20° C | 97% | 1006.4 hPa | 0 mm | - | - | - |
| 1787514438 | 20.56° C | 97% | 1006.4 hPa | 0 mm | - | - | - |
| 1787513688 | 20.56° C | 96% | 1006.5 hPa | 0.51 mm | - | - | - |
| 1787512938 | 20.56° C | 96% | 1006.6 hPa | 0.51 mm | - | - | - |
| 1787512188 | 20.56° C | 95% | 1006.1 hPa | 3.05 mm | - | - | - |
| 1787511438 | 20.56° C | 95% | 1006.3 hPa | 3.05 mm | - | - | - |
| 1787510688 | 21.11° C | 94% | 1006.4 hPa | 3.05 mm | - | - | - |
| 1787509938 | 21.11° C | 91% | 1006.1 hPa | 2.54 mm | - | - | - |
| 1787509188 | 22.22° C | 83% | 1005.4 hPa | 1.27 mm | - | - | - |
| 1787508418 | 25° C | 75% | 1005.3 hPa | 0 mm | - | - | - |
| 1787507668 | 25.56° C | 74% | 1004.9 hPa | 0 mm | - | - | - |
| 1787506918 | 26.11° C | 74% | 1004.8 hPa | 0 mm | - | - | - |
| 1787506168 | 27.78° C | 67% | 1004.4 hPa | 0.25 mm | - | - | - |
| 1787505418 | 28.89° C | 64% | 1004.5 hPa | 0.25 mm | - | - | - |
| 1787504668 | 29.44° C | 74% | 1004.7 hPa | 0.25 mm | - | - | - |
| 1787503918 | 29.44° C | 78% | 1004.7 hPa | 0.25 mm | - | - | - |
| 1787503168 | 29.44° C | 74% | 1004.4 hPa | 0.25 mm | - | - | - |
| 1787502418 | 35.56° C | 43% | 1003.9 hPa | 0 mm | - | - | - |
* Rain latest hour (hover to see other rain measurements)
** Current wind speed in m/s (hover to see current wind gust speed)